Time,TemperatureF,DewpointF,PressureIn,WindDirection,WindDirectionDegrees,WindSpeedMPH,WindSpeedGustMPH,Humidity,HourlyPrecipIn,Conditions,Clouds,dailyrainin,SoftwareType,DateUTC
2013-01-14 00:01:00,58.9,58.6,30.06,West,273,0.0,0.0,99,0.00,,,0.00,Wunderground v.1.15,2013-01-14 05:01:00,
2013-01-14 00:02:00,58.8,58.5,30.06,West,273,0.0,0.0,99,0.00,,,0.00,Wunderground v.1.15,2013-01-14 05:02:00,
2013-01-14 00:07:00,58.5,57.9,30.06,West,273,0.0,0.0,98,0.00,,,0.00,Wunderground v.1.15,2013-01-14 05:07:00,
2013-01-14 00:08:00,58.6,58.3,30.06,West,273,0.0,0.0,99,0.00,,,0.00,Wunderground v.1.15,2013-01-14 05:08:00,
2013-01-14 00:14:00,58.7,58.4,30.06,West,273,0.0,0.0,99,0.00,,,0.00,Wunderground v.1.15,2013-01-14 05:14:00,
2013-01-14 00:20:00,58.8,58.5,30.05,West,273,0.0,0.0,99,0.00,,,0.00,Wunderground v.1.15,2013-01-14 05:20:00,
2013-01-14 00:25:00,58.4,58.1,30.05,West,273,0.0,0.0,99,0.00,,,0.00,Wunderground v.1.15,2013-01-14 05:25:00,
2013-01-14 00:31:00,58.1,57.8,30.06,West,273,0.0,0.0,99,0.00,,,0.00,Wunderground v.1.15,2013-01-14 05:31:00,
2013-01-14 00:37:00,58.0,57.7,30.06,West,273,0.0,0.0,99,0.00,,,0.00,Wunderground v.1.15,2013-01-14 05:37:00,
2013-01-14 00:43:00,57.8,57.2,30.06,West,273,0.0,0.0,98,0.00,,,0.00,Wunderground v.1.15,2013-01-14 05:43:00,
2013-01-14 00:49:00,57.5,56.9,30.06,West,273,0.0,0.0,98,0.00,,,0.00,Wunderground v.1.15,2013-01-14 05:49:00,
2013-01-14 00:54:00,57.4,57.1,30.06,West,273,0.0,0.0,99,0.00,,,0.00,Wunderground v.1.15,2013-01-14 05:54:00,
2013-01-14 01:00:00,57.5,57.2,30.06,West,273,0.0,0.0,99,0.00,,,0.00,Wunderground v.1.15,2013-01-14 06:00:00,
2013-01-14 01:07:00,57.4,57.1,30.06,West,273,0.0,0.0,99,0.00,,,0.00,Wunderground v.1.15,2013-01-14 06:07:00,
2013-01-14 01:12:00,56.8,56.2,30.06,West,273,0.0,0.0,98,0.00,,,0.00,Wunderground v.1.15,2013-01-14 06:12:00,
2013-01-14 01:18:00,56.5,55.9,30.06,West,273,0.0,0.0,98,0.00,,,0.00,Wunderground v.1.15,2013-01-14 06:18:00,
2013-01-14 01:23:00,56.2,55.6,30.06,West,273,0.0,0.0,98,0.00,,,0.00,Wunderground v.1.15,2013-01-14 06:23:00,
2013-01-14 01:29:00,56.0,55.4,30.06,West,273,0.0,0.0,98,0.00,,,0.00,Wunderground v.1.15,2013-01-14 06:29:00,
2013-01-14 01:35:00,55.8,55.2,30.07,West,273,0.0,0.0,98,0.00,,,0.00,Wunderground v.1.15,2013-01-14 06:35:00,
2013-01-14 01:40:00,55.7,55.4,30.07,West,273,0.0,0.0,99,0.00,,,0.00,Wunderground v.1.15,2013-01-14 06:40:00,
2013-01-14 01:46:00,55.7,55.4,30.07,West,273,0.0,0.0,99,0.00,,,0.00,Wunderground v.1.15,2013-01-14 06:46:00,
2013-01-14 01:52:00,55.4,55.1,30.07,West,273,0.0,0.0,99,0.00,,,0.00,Wunderground v.1.15,2013-01-14 06:52:00,
2013-01-14 01:58:00,55.1,54.5,30.07,West,273,0.0,0.0,98,0.00,,,0.00,Wunderground v.1.15,2013-01-14 06:58:00,
2013-01-14 02:04:00,55.0,54.7,30.07,West,273,0.0,0.0,99,0.00,,,0.00,Wunderground v.1.15,2013-01-14 07:04:00,
2013-01-14 02:10:00,54.8,54.2,30.07,West,273,0.0,0.0,98,0.00,,,0.00,Wunderground v.1.15,2013-01-14 07:10:00,
2013-01-14 02:15:00,54.8,54.5,30.08,West,273,0.0,0.0,99,0.00,,,0.00,Wunderground v.1.15,2013-01-14 07:15:00,
2013-01-14 02:21:00,54.7,54.4,30.08,West,273,0.0,0.0,99,0.00,,,0.00,Wunderground v.1.15,2013-01-14 07:21:00,
2013-01-14 02:26:00,54.6,54.3,30.08,West,273,0.0,0.0,99,0.00,,,0.00,Wunderground v.1.15,2013-01-14 07:26:00,
2013-01-14 02:32:00,54.5,54.2,30.08,West,273,0.0,0.0,99,0.00,,,0.00,Wunderground v.1.15,2013-01-14 07:32:00,
2013-01-14 02:38:00,54.6,54.3,30.08,West,273,0.0,0.0,99,0.00,,,0.00,Wunderground v.1.15,2013-01-14 07:38:00,
2013-01-14 02:43:00,54.6,54.3,30.08,West,273,0.0,0.0,99,0.00,,,0.00,Wunderground v.1.15,2013-01-14 07:43:00,
2013-01-14 02:49:00,54.6,54.3,30.08,West,273,0.0,0.0,99,0.00,,,0.00,Wunderground v.1.15,2013-01-14 07:49:00,
2013-01-14 02:55:00,55.1,55.1,30.08,West,273,0.0,0.0,100,0.00,,,0.00,Wunderground v.1.15,2013-01-14 07:55:00,
2013-01-14 03:01:00,55.3,55.3,30.07,West,273,0.0,0.0,100,0.00,,,0.00,Wunderground v.1.15,2013-01-14 08:01:00,
2013-01-14 03:07:00,55.1,55.1,30.07,West,273,0.0,0.0,100,0.00,,,0.00,Wunderground v.1.15,2013-01-14 08:07:00,
2013-01-14 03:13:00,54.9,54.6,30.07,West,273,0.0,0.0,99,0.00,,,0.00,Wunderground v.1.15,2013-01-14 08:13:00,
2013-01-14 03:19:00,54.8,54.5,30.06,West,273,0.0,0.0,99,0.00,,,0.00,Wunderground v.1.15,2013-01-14 08:19:00,
2013-01-14 03:24:00,54.7,54.4,30.06,West,273,0.0,0.0,99,0.00,,,0.00,Wunderground v.1.15,2013-01-14 08:24:00,
2013-01-14 03:30:00,54.6,54.3,30.06,West,273,0.0,0.0,99,0.00,,,0.00,Wunderground v.1.15,2013-01-14 08:30:00,
2013-01-14 03:36:00,54.7,54.7,30.06,West,273,0.0,0.0,100,0.00,,,0.00,Wunderground v.1.15,2013-01-14 08:36:00,
2013-01-14 03:41:00,54.9,54.9,30.06,West,273,0.0,0.0,100,0.00,,,0.00,Wunderground v.1.15,2013-01-14 08:41:00,
2013-01-14 03:47:00,55.3,55.3,30.05,West,273,0.0,0.0,100,0.00,,,0.00,Wunderground v.1.15,2013-01-14 08:47:00,
2013-01-14 03:52:00,55.3,55.3,30.05,West,273,0.0,0.0,100,0.00,,,0.00,Wunderground v.1.15,2013-01-14 08:52:00,
2013-01-14 03:58:00,55.3,55.3,30.05,West,273,0.0,0.0,100,0.00,,,0.00,Wunderground v.1.15,2013-01-14 08:58:00,
2013-01-14 04:04:00,55.6,55.6,30.05,West,273,0.0,0.0,100,0.00,,,0.00,Wunderground v.1.15,2013-01-14 09:04:00,
2013-01-14 04:10:00,55.9,55.9,30.05,West,273,0.0,0.0,100,0.00,,,0.00,Wunderground v.1.15,2013-01-14 09:10:00,
2013-01-14 04:16:00,56.0,56.0,30.04,West,273,0.0,0.0,100,0.00,,,0.00,Wunderground v.1.15,2013-01-14 09:16:00,
2013-01-14 04:22:00,55.8,55.8,30.04,West,273,0.0,0.0,100,0.00,,,0.00,Wunderground v.1.15,2013-01-14 09:22:00,
2013-01-14 04:28:00,55.6,55.6,30.04,West,273,0.0,0.0,100,0.00,,,0.00,Wunderground v.1.15,2013-01-14 09:28:00,
2013-01-14 04:34:00,56.0,56.0,30.03,West,273,0.0,0.0,100,0.00,,,0.00,Wunderground v.1.15,2013-01-14 09:34:00,
2013-01-14 04:39:00,56.5,56.5,30.03,West,273,0.0,0.0,100,0.00,,,0.00,Wunderground v.1.15,2013-01-14 09:39:00,
2013-01-14 04:46:00,56.2,56.2,30.02,West,273,0.0,0.0,100,0.00,,,0.00,Wunderground v.1.15,2013-01-14 09:46:00,
2013-01-14 04:52:00,56.3,56.3,30.02,West,273,0.0,1.0,100,0.00,,,0.00,Wunderground v.1.15,2013-01-14 09:52:00,
2013-01-14 04:57:00,56.1,56.1,30.02,West,273,0.0,0.0,100,0.00,,,0.00,Wunderground v.1.15,2013-01-14 09:57:00,
2013-01-14 05:02:00,57.4,57.4,30.03,West,273,0.0,1.0,100,0.00,,,0.00,Wunderground v.1.15,2013-01-14 10:02:00,
2013-01-14 05:07:00,57.7,57.7,30.03,West,273,0.0,0.0,100,0.00,,,0.00,Wunderground v.1.15,2013-01-14 10:07:00,
2013-01-14 05:13:00,57.3,57.3,30.03,West,273,0.0,0.0,100,0.00,,,0.00,Wunderground v.1.15,2013-01-14 10:13:00,
2013-01-14 05:18:00,56.9,56.9,30.03,West,273,0.0,0.0,100,0.00,,,0.00,Wunderground v.1.15,2013-01-14 10:18:00,
2013-01-14 05:24:00,56.4,56.4,30.03,West,273,0.0,0.0,100,0.00,,,0.00,Wunderground v.1.15,2013-01-14 10:24:00,
2013-01-14 05:29:00,56.3,56.3,30.03,West,273,0.0,0.0,100,0.00,,,0.00,Wunderground v.1.15,2013-01-14 10:29:00,
2013-01-14 05:35:00,56.1,56.1,30.03,West,273,0.0,0.0,100,0.00,,,0.00,Wunderground v.1.15,2013-01-14 10:35:00,
2013-01-14 05:41:00,56.1,56.1,30.03,West,273,0.0,0.0,100,0.00,,,0.00,Wunderground v.1.15,2013-01-14 10:41:00,
2013-01-14 05:47:00,56.1,56.1,30.04,West,273,0.0,0.0,100,0.00,,,0.00,Wunderground v.1.15,2013-01-14 10:47:00,
2013-01-14 05:52:00,56.0,56.0,30.04,West,273,0.0,0.0,100,0.00,,,0.00,Wunderground v.1.15,2013-01-14 10:52:00,
2013-01-14 05:57:00,55.9,55.9,30.04,West,273,0.0,0.0,100,0.00,,,0.00,Wunderground v.1.15,2013-01-14 10:57:00,
2013-01-14 06:03:00,55.9,55.9,30.05,West,273,0.0,0.0,100,0.00,,,0.00,Wunderground v.1.15,2013-01-14 11:03:00,
2013-01-14 06:08:00,55.5,55.5,30.05,West,273,0.0,0.0,100,0.00,,,0.00,Wunderground v.1.15,2013-01-14 11:08:00,
2013-01-14 06:14:00,55.2,55.2,30.05,West,273,0.0,0.0,100,0.00,,,0.00,Wunderground v.1.15,2013-01-14 11:14:00,
2013-01-14 06:19:00,54.9,54.6,30.05,West,273,0.0,0.0,99,0.00,,,0.00,Wunderground v.1.15,2013-01-14 11:19:00,
2013-01-14 06:25:00,54.7,54.4,30.05,West,273,0.0,0.0,99,0.00,,,0.00,Wunderground v.1.15,2013-01-14 11:25:00,
2013-01-14 06:30:00,54.6,54.3,30.05,West,273,0.0,0.0,99,0.00,,,0.00,Wunderground v.1.15,2013-01-14 11:30:00,
2013-01-14 06:36:00,54.4,54.1,30.05,West,273,0.0,0.0,99,0.00,,,0.00,Wunderground v.1.15,2013-01-14 11:36:00,
2013-01-14 06:42:00,54.2,53.9,30.05,West,273,0.0,0.0,99,0.00,,,0.00,Wunderground v.1.15,2013-01-14 11:42:00,
2013-01-14 06:47:00,54.0,53.7,30.06,West,273,0.0,0.0,99,0.00,,,0.00,Wunderground v.1.15,2013-01-14 11:47:00,
2013-01-14 06:53:00,53.8,53.5,30.06,West,273,0.0,0.0,99,0.00,,,0.00,Wunderground v.1.15,2013-01-14 11:53:00,
2013-01-14 06:59:00,53.6,53.3,30.06,West,273,0.0,0.0,99,0.00,,,0.00,Wunderground v.1.15,2013-01-14 11:59:00,
2013-01-14 07:05:00,53.4,53.1,30.07,West,273,0.0,0.0,99,0.00,,,0.01,Wunderground v.1.15,2013-01-14 12:05:00,
2013-01-14 07:11:00,53.5,53.5,30.07,West,273,0.0,0.0,100,0.00,,,0.01,Wunderground v.1.15,2013-01-14 12:11:00,
2013-01-14 07:17:00,53.4,53.1,30.07,West,273,0.0,0.0,99,0.00,,,0.01,Wunderground v.1.15,2013-01-14 12:17:00,
2013-01-14 07:23:00,53.0,52.7,30.07,West,273,0.0,0.0,99,0.00,,,0.01,Wunderground v.1.15,2013-01-14 12:23:00,
2013-01-14 07:29:00,52.8,52.5,30.07,West,273,0.0,0.0,99,0.00,,,0.01,Wunderground v.1.15,2013-01-14 12:29:00,
2013-01-14 07:34:00,52.6,52.3,30.07,West,273,0.0,0.0,99,0.00,,,0.01,Wunderground v.1.15,2013-01-14 12:34:00,
2013-01-14 07:40:00,52.4,52.1,30.07,West,273,0.0,0.0,99,0.00,,,0.01,Wunderground v.1.15,2013-01-14 12:40:00,
2013-01-14 07:45:00,52.3,52.0,30.08,West,273,0.0,0.0,99,0.00,,,0.01,Wunderground v.1.15,2013-01-14 12:45:00,
2013-01-14 07:51:00,52.2,51.9,30.08,West,273,0.0,0.0,99,0.00,,,0.01,Wunderground v.1.15,2013-01-14 12:51:00,
2013-01-14 07:56:00,52.2,52.2,30.08,West,273,0.0,0.0,100,0.00,,,0.01,Wunderground v.1.15,2013-01-14 12:56:00,
2013-01-14 08:01:00,52.4,52.4,30.08,West,273,0.0,0.0,100,0.00,,,0.01,Wunderground v.1.15,2013-01-14 13:01:00,
2013-01-14 08:07:00,52.6,52.6,30.08,West,273,0.0,0.0,100,0.00,,,0.01,Wunderground v.1.15,2013-01-14 13:07:00,
2013-01-14 08:13:00,52.8,52.8,30.08,West,273,0.0,0.0,100,0.00,,,0.01,Wunderground v.1.15,2013-01-14 13:13:00,
2013-01-14 08:18:00,53.0,53.0,30.08,West,273,0.0,0.0,100,0.00,,,0.01,Wunderground v.1.15,2013-01-14 13:18:00,
2013-01-14 08:24:00,53.6,53.6,30.08,West,273,0.0,0.0,100,0.00,,,0.01,Wunderground v.1.15,2013-01-14 13:24:00,
2013-01-14 08:30:00,54.4,54.4,30.09,West,273,0.0,0.0,100,0.00,,,0.01,Wunderground v.1.15,2013-01-14 13:30:00,
2013-01-14 08:36:00,55.6,55.6,30.09,West,273,0.0,0.0,100,0.00,,,0.01,Wunderground v.1.15,2013-01-14 13:36:00,
2013-01-14 08:41:00,56.1,56.1,30.09,West,273,0.0,0.0,100,0.00,,,0.01,Wunderground v.1.15,2013-01-14 13:41:00,
2013-01-14 08:46:00,56.2,56.2,30.10,West,273,0.0,0.0,100,0.00,,,0.01,Wunderground v.1.15,2013-01-14 13:46:00,
2013-01-14 08:52:00,56.7,56.7,30.10,West,273,0.0,0.0,100,0.00,,,0.01,Wunderground v.1.15,2013-01-14 13:52:00,
2013-01-14 08:57:00,57.5,57.5,30.10,West,266,0.0,2.0,100,0.00,,,0.01,Wunderground v.1.15,2013-01-14 13:57:00,
2013-01-14 09:02:00,60.1,60.1,30.10,West,271,1.0,2.0,100,0.00,,,0.01,Wunderground v.1.15,2013-01-14 14:02:00,
2013-01-14 09:08:00,62.3,62.3,30.10,West,261,1.0,2.0,100,0.00,,,0.01,Wunderground v.1.15,2013-01-14 14:08:00,
2013-01-14 09:13:00,63.8,63.8,30.10,WSW,258,2.0,2.0,100,0.00,,,0.01,Wunderground v.1.15,2013-01-14 14:13:00,
2013-01-14 09:19:00,64.5,64.5,30.11,West,260,2.0,3.0,100,0.00,,,0.01,Wunderground v.1.15,2013-01-14 14:19:00,
2013-01-14 09:25:00,65.2,65.2,30.11,West,273,2.0,3.0,100,0.00,,,0.01,Wunderground v.1.15,2013-01-14 14:25:00,
2013-01-14 09:30:00,65.8,65.8,30.10,West,271,1.0,3.0,100,0.00,,,0.01,Wunderground v.1.15,2013-01-14 14:30:00,
2013-01-14 09:36:00,66.4,66.4,30.10,WNW,298,2.0,4.0,100,0.00,,,0.01,Wunderground v.1.15,2013-01-14 14:36:00,
2013-01-14 09:42:00,67.5,66.0,30.10,West,266,2.0,5.0,95,0.00,,,0.01,Wunderground v.1.15,2013-01-14 14:42:00,
2013-01-14 09:47:00,68.3,65.9,30.09,West,265,3.0,3.0,92,0.00,,,0.01,Wunderground v.1.15,2013-01-14 14:47:00,
2013-01-14 09:53:00,68.9,65.5,30.09,West,264,2.0,5.0,89,0.00,,,0.01,Wunderground v.1.15,2013-01-14 14:53:00,
2013-01-14 09:58:00,69.0,65.6,30.09,WNW,282,3.0,3.0,89,0.00,,,0.01,Wunderground v.1.15,2013-01-14 14:58:00,
2013-01-14 10:03:00,69.3,65.9,30.10,WSW,257,2.0,4.0,89,0.00,,,0.01,Wunderground v.1.15,2013-01-14 15:03:00,
2013-01-14 10:09:00,69.7,66.0,30.10,WNW,293,2.0,5.0,88,0.00,,,0.01,Wunderground v.1.15,2013-01-14 15:09:00,
2013-01-14 10:14:00,69.8,66.1,30.10,West,275,2.0,6.0,88,0.00,,,0.01,Wunderground v.1.15,2013-01-14 15:14:00,
2013-01-14 10:20:00,70.3,66.6,30.10,WSW,253,2.0,3.0,88,0.00,,,0.01,Wunderground v.1.15,2013-01-14 15:20:00,
2013-01-14 10:26:00,70.8,66.4,30.10,NW,307,2.0,2.0,86,0.00,,,0.01,Wunderground v.1.15,2013-01-14 15:26:00,
2013-01-14 10:32:00,71.3,66.6,30.10,NNW,345,2.0,4.0,85,0.00,,,0.01,Wunderground v.1.15,2013-01-14 15:32:00,
2013-01-14 10:37:00,71.7,66.9,30.10,NNW,329,2.0,2.0,85,0.00,,,0.01,Wunderground v.1.15,2013-01-14 15:37:00,
2013-01-14 10:42:00,72.3,67.2,30.10,West,269,1.0,2.0,84,0.00,,,0.01,Wunderground v.1.15,2013-01-14 15:42:00,
2013-01-14 10:48:00,72.8,67.0,30.09,SW,225,1.0,3.0,82,0.00,,,0.01,Wunderground v.1.15,2013-01-14 15:48:00,
2013-01-14 10:54:00,73.2,67.0,30.09,NW,323,2.0,4.0,81,0.00,,,0.01,Wunderground v.1.15,2013-01-14 15:54:00,
2013-01-14 10:59:00,73.6,66.7,30.09,WSW,251,3.0,7.0,79,0.00,,,0.01,Wunderground v.1.15,2013-01-14 15:59:00,
2013-01-14 11:05:00,73.7,66.0,30.09,West,264,3.0,7.0,77,0.00,,,0.01,Wunderground v.1.15,2013-01-14 16:05:00,
2013-01-14 11:11:00,73.2,65.9,30.09,WSW,257,2.0,4.0,78,0.00,,,0.01,Wunderground v.1.15,2013-01-14 16:11:00,
2013-01-14 11:17:00,73.0,66.5,30.08,WNW,297,2.0,2.0,80,0.00,,,0.01,Wunderground v.1.15,2013-01-14 16:17:00,
2013-01-14 11:23:00,73.5,66.2,30.08,West,277,2.0,3.0,78,0.00,,,0.01,Wunderground v.1.15,2013-01-14 16:23:00,
2013-01-14 11:29:00,74.1,66.4,30.08,NW,325,2.0,3.0,77,0.00,,,0.01,Wunderground v.1.15,2013-01-14 16:29:00,
2013-01-14 11:35:00,74.3,65.9,30.07,West,272,3.0,3.0,75,0.00,,,0.01,Wunderground v.1.15,2013-01-14 16:35:00,
2013-01-14 11:41:00,74.7,65.9,30.07,West,262,3.0,4.0,74,0.00,,,0.01,Wunderground v.1.15,2013-01-14 16:41:00,
2013-01-14 11:47:00,74.8,66.3,30.06,WSW,246,3.0,3.0,75,0.00,,,0.01,Wunderground v.1.15,2013-01-14 16:47:00,
2013-01-14 11:52:00,74.8,67.1,30.06,WSW,246,3.0,3.0,77,0.00,,,0.01,Wunderground v.1.15,2013-01-14 16:52:00,
2013-01-14 11:58:00,74.7,67.0,30.06,WNW,286,2.0,2.0,77,0.00,,,0.01,Wunderground v.1.15,2013-01-14 16:58:00,
2013-01-14 12:04:00,74.7,66.6,30.06,South,176,2.0,4.0,76,0.00,,,0.01,Wunderground v.1.15,2013-01-14 17:04:00,
2013-01-14 12:10:00,74.8,66.7,30.06,NW,321,2.0,2.0,76,0.00,,,0.01,Wunderground v.1.15,2013-01-14 17:10:00,
2013-01-14 12:16:00,75.0,66.5,30.05,WNW,291,2.0,3.0,75,0.00,,,0.01,Wunderground v.1.15,2013-01-14 17:16:00,
2013-01-14 12:22:00,75.0,66.1,30.05,SSW,196,2.0,3.0,74,0.00,,,0.01,Wunderground v.1.15,2013-01-14 17:22:00,
2013-01-14 12:28:00,74.9,66.1,30.05,SE,140,1.0,3.0,74,0.00,,,0.01,Wunderground v.1.15,2013-01-14 17:28:00,
2013-01-14 12:33:00,75.1,66.6,30.05,SSW,192,2.0,3.0,75,0.00,,,0.01,Wunderground v.1.15,2013-01-14 17:33:00,
2013-01-14 12:39:00,75.5,66.6,30.05,WSW,252,1.0,1.0,74,0.00,,,0.01,Wunderground v.1.15,2013-01-14 17:39:00,
2013-01-14 12:45:00,75.6,66.3,30.04,West,264,2.0,5.0,73,0.00,,,0.01,Wunderground v.1.15,2013-01-14 17:45:00,
2013-01-14 12:51:00,75.3,66.0,30.04,WSW,237,2.0,4.0,73,0.00,,,0.01,Wunderground v.1.15,2013-01-14 17:51:00,
2013-01-14 12:57:00,74.8,66.0,30.04,WSW,251,2.0,3.0,74,0.00,,,0.01,Wunderground v.1.15,2013-01-14 17:57:00,
2013-01-14 13:02:00,74.3,66.2,30.03,SSW,212,2.0,4.0,76,0.00,,,0.01,Wunderground v.1.15,2013-01-14 18:02:00,
2013-01-14 13:07:00,74.4,66.3,30.03,WSW,254,2.0,6.0,76,0.00,,,0.01,Wunderground v.1.15,2013-01-14 18:07:00,
2013-01-14 13:13:00,74.4,66.3,30.03,West,266,2.0,6.0,76,0.00,,,0.01,Wunderground v.1.15,2013-01-14 18:13:00,
2013-01-14 13:19:00,74.6,66.5,30.03,WNW,285,2.0,3.0,76,0.00,,,0.01,Wunderground v.1.15,2013-01-14 18:19:00,
2013-01-14 13:25:00,74.7,66.2,30.03,West,269,3.0,3.0,75,0.00,,,0.01,Wunderground v.1.15,2013-01-14 18:25:00,
2013-01-14 13:31:00,74.9,65.7,30.03,SW,226,2.0,4.0,73,0.00,,,0.01,Wunderground v.1.15,2013-01-14 18:31:00,
2013-01-14 13:37:00,75.0,65.8,30.03,West,275,2.0,2.0,73,0.00,,,0.01,Wunderground v.1.15,2013-01-14 18:37:00,
2013-01-14 13:42:00,75.1,65.9,30.03,NW,316,2.0,3.0,73,0.00,,,0.01,Wunderground v.1.15,2013-01-14 18:42:00,
2013-01-14 13:47:00,75.4,66.5,30.03,SSW,206,2.0,3.0,74,0.00,,,0.01,Wunderground v.1.15,2013-01-14 18:47:00,
2013-01-14 13:52:00,75.5,65.8,30.03,West,266,2.0,5.0,72,0.00,,,0.01,Wunderground v.1.15,2013-01-14 18:52:00,
2013-01-14 13:58:00,75.7,66.0,30.03,WSW,238,2.0,2.0,72,0.00,,,0.01,Wunderground v.1.15,2013-01-14 18:58:00,
2013-01-14 14:04:00,75.7,65.6,30.03,WSW,237,2.0,4.0,71,0.00,,,0.01,Wunderground v.1.15,2013-01-14 19:04:00,
2013-01-14 14:09:00,75.5,65.4,30.03,West,276,2.0,3.0,71,0.00,,,0.01,Wunderground v.1.15,2013-01-14 19:09:00,
2013-01-14 14:14:00,75.4,65.3,30.03,WSW,255,2.0,5.0,71,0.00,,,0.01,Wunderground v.1.15,2013-01-14 19:14:00,
2013-01-14 14:20:00,75.4,65.7,30.03,West,281,2.0,2.0,72,0.00,,,0.01,Wunderground v.1.15,2013-01-14 19:20:00,
2013-01-14 14:27:00,75.3,65.2,30.03,West,268,2.0,2.0,71,0.00,,,0.01,Wunderground v.1.15,2013-01-14 19:27:00,
2013-01-14 14:32:00,75.3,65.6,30.03,West,269,2.0,3.0,72,0.00,,,0.01,Wunderground v.1.15,2013-01-14 19:32:00,
2013-01-14 14:38:00,75.4,65.7,30.03,SW,231,2.0,3.0,72,0.00,,,0.01,Wunderground v.1.15,2013-01-14 19:38:00,
2013-01-14 14:44:00,75.2,65.1,30.03,WNW,298,2.0,3.0,71,0.00,,,0.01,Wunderground v.1.15,2013-01-14 19:44:00,
2013-01-14 14:50:00,74.9,65.3,30.04,West,281,2.0,5.0,72,0.00,,,0.01,Wunderground v.1.15,2013-01-14 19:50:00,
2013-01-14 14:55:00,74.4,65.2,30.04,SW,227,2.0,5.0,73,0.00,,,0.01,Wunderground v.1.15,2013-01-14 19:55:00,
2013-01-14 15:02:00,74.1,65.3,30.04,WSW,253,1.0,3.0,74,0.00,,,0.01,Wunderground v.1.15,2013-01-14 20:02:00,
2013-01-14 15:07:00,73.9,65.1,30.04,West,281,1.0,1.0,74,0.00,,,0.01,Wunderground v.1.15,2013-01-14 20:07:00,
2013-01-14 15:13:00,73.8,65.4,30.04,West,271,2.0,3.0,75,0.00,,,0.01,Wunderground v.1.15,2013-01-14 20:13:00,
2013-01-14 15:18:00,73.7,65.3,30.04,SSW,202,2.0,2.0,75,0.00,,,0.01,Wunderground v.1.15,2013-01-14 20:18:00,
2013-01-14 15:24:00,73.6,65.2,30.04,SW,225,1.0,3.0,75,0.00,,,0.01,Wunderground v.1.15,2013-01-14 20:24:00,
2013-01-14 15:30:00,73.1,64.7,30.05,WNW,289,2.0,4.0,75,0.00,,,0.01,Wunderground v.1.15,2013-01-14 20:30:00,
2013-01-14 15:36:00,72.7,65.1,30.05,WNW,300,2.0,4.0,77,0.00,,,0.01,Wunderground v.1.15,2013-01-14 20:36:00,
2013-01-14 15:41:00,72.8,64.8,30.05,WNW,301,2.0,4.0,76,0.00,,,0.01,Wunderground v.1.15,2013-01-14 20:41:00,
2013-01-14 15:47:00,72.7,65.1,30.05,SW,227,1.0,3.0,77,0.00,,,0.01,Wunderground v.1.15,2013-01-14 20:47:00,
2013-01-14 15:53:00,72.2,65.0,30.05,West,269,1.0,5.0,78,0.00,,,0.01,Wunderground v.1.15,2013-01-14 20:53:00,
2013-01-14 15:59:00,71.6,64.7,30.05,WNW,301,2.0,3.0,79,0.00,,,0.01,Wunderground v.1.15,2013-01-14 20:59:00,
2013-01-14 16:04:00,71.3,64.8,30.05,SE,135,1.0,3.0,80,0.00,,,0.01,Wunderground v.1.15,2013-01-14 21:04:00,
2013-01-14 16:10:00,70.8,64.3,30.05,West,272,2.0,4.0,80,0.00,,,0.01,Wunderground v.1.15,2013-01-14 21:10:00,
2013-01-14 16:16:00,70.4,64.3,30.05,West,281,1.0,6.0,81,0.00,,,0.01,Wunderground v.1.15,2013-01-14 21:16:00,
2013-01-14 16:21:00,70.0,64.2,30.05,WNW,290,1.0,6.0,82,0.00,,,0.01,Wunderground v.1.15,2013-01-14 21:21:00,
2013-01-14 16:27:00,69.6,64.2,30.05,West,276,1.0,3.0,83,0.00,,,0.01,Wunderground v.1.15,2013-01-14 21:27:00,
2013-01-14 16:32:00,69.2,64.2,30.06,WSW,238,1.0,3.0,84,0.00,,,0.01,Wunderground v.1.15,2013-01-14 21:32:00,
2013-01-14 16:38:00,68.8,63.8,30.06,WNW,282,1.0,2.0,84,0.00,,,0.01,Wunderground v.1.15,2013-01-14 21:38:00,
2013-01-14 16:44:00,68.4,63.7,30.06,WNW,284,1.0,2.0,85,0.00,,,0.01,Wunderground v.1.15,2013-01-14 21:44:00,
2013-01-14 16:50:00,68.0,63.7,30.06,West,265,1.0,1.0,86,0.00,,,0.01,Wunderground v.1.15,2013-01-14 21:50:00,
2013-01-14 16:56:00,67.6,63.6,30.06,West,265,0.0,1.0,87,0.00,,,0.01,Wunderground v.1.15,2013-01-14 21:56:00,
2013-01-14 17:01:00,67.3,63.3,30.07,WNW,290,0.0,1.0,87,0.00,,,0.01,Wunderground v.1.15,2013-01-14 22:01:00,
2013-01-14 17:07:00,66.8,63.1,30.07,WSW,244,0.0,1.0,88,0.00,,,0.01,Wunderground v.1.15,2013-01-14 22:07:00,
2013-01-14 17:12:00,66.4,63.1,30.07,WSW,250,0.0,1.0,89,0.00,,,0.01,Wunderground v.1.15,2013-01-14 22:12:00,
2013-01-14 17:17:00,66.0,63.0,30.07,WSW,256,0.0,1.0,90,0.00,,,0.01,Wunderground v.1.15,2013-01-14 22:17:00,
2013-01-14 17:23:00,65.6,62.9,30.07,WSW,242,0.0,1.0,91,0.00,,,0.01,Wunderground v.1.15,2013-01-14 22:23:00,
2013-01-14 17:29:00,65.1,62.7,30.07,WSW,258,0.0,0.0,92,0.00,,,0.01,Wunderground v.1.15,2013-01-14 22:29:00,
2013-01-14 17:34:00,64.8,62.7,30.07,WSW,244,0.0,2.0,93,0.00,,,0.01,Wunderground v.1.15,2013-01-14 22:34:00,
2013-01-14 17:40:00,64.5,62.4,30.07,West,277,0.0,0.0,93,0.00,,,0.01,Wunderground v.1.15,2013-01-14 22:40:00,
2013-01-14 17:45:00,64.2,62.4,30.08,West,274,0.0,1.0,94,0.00,,,0.01,Wunderground v.1.15,2013-01-14 22:45:00,
2013-01-14 17:51:00,64.0,62.5,30.08,West,274,0.0,0.0,95,0.00,,,0.01,Wunderground v.1.15,2013-01-14 22:51:00,
2013-01-14 17:57:00,63.8,62.3,30.08,WNW,289,0.0,0.0,95,0.00,,,0.01,Wunderground v.1.15,2013-01-14 22:57:00,
2013-01-14 18:02:00,63.6,62.1,30.08,WNW,289,0.0,0.0,95,0.00,,,0.01,Wunderground v.1.15,2013-01-14 23:02:00,
2013-01-14 18:07:00,63.5,62.3,30.08,WNW,283,0.0,0.0,96,0.00,,,0.01,Wunderground v.1.15,2013-01-14 23:07:00,
2013-01-14 18:12:00,63.4,62.2,30.08,WNW,283,0.0,0.0,96,0.00,,,0.01,Wunderground v.1.15,2013-01-14 23:12:00,
2013-01-14 18:18:00,63.3,62.1,30.08,WNW,283,0.0,0.0,96,0.00,,,0.01,Wunderground v.1.15,2013-01-14 23:18:00,
2013-01-14 18:24:00,63.1,61.9,30.08,WNW,283,0.0,0.0,96,0.00,,,0.01,Wunderground v.1.15,2013-01-14 23:24:00,
2013-01-14 18:29:00,63.0,61.8,30.08,WNW,283,0.0,0.0,96,0.00,,,0.01,Wunderground v.1.15,2013-01-14 23:29:00,
2013-01-14 18:35:00,62.8,61.6,30.08,WNW,283,0.0,0.0,96,0.00,,,0.01,Wunderground v.1.15,2013-01-14 23:35:00,
2013-01-14 18:40:00,62.7,61.8,30.08,WNW,283,0.0,0.0,97,0.00,,,0.01,Wunderground v.1.15,2013-01-14 23:40:00,
2013-01-14 18:47:00,62.7,61.8,30.08,WNW,283,0.0,0.0,97,0.00,,,0.01,Wunderground v.1.15,2013-01-14 23:47:00,
2013-01-14 18:52:00,62.5,61.6,30.08,WNW,283,0.0,0.0,97,0.00,,,0.01,Wunderground v.1.15,2013-01-14 23:52:00,
2013-01-14 18:57:00,62.4,61.5,30.08,WNW,302,0.0,0.0,97,0.00,,,0.01,Wunderground v.1.15,2013-01-14 23:57:00,
2013-01-14 19:03:00,62.2,61.3,30.08,WNW,302,0.0,1.0,97,0.00,,,0.01,Wunderground v.1.15,2013-01-15 00:03:00,
2013-01-14 19:09:00,62.0,61.1,30.08,WNW,302,0.0,0.0,97,0.00,,,0.01,Wunderground v.1.15,2013-01-15 00:09:00,
2013-01-14 19:14:00,61.9,61.0,30.08,WNW,302,0.0,0.0,97,0.00,,,0.01,Wunderground v.1.15,2013-01-15 00:14:00,
2013-01-14 19:20:00,61.8,60.9,30.07,WNW,302,0.0,0.0,97,0.00,,,0.01,Wunderground v.1.15,2013-01-15 00:20:00,
2013-01-14 19:26:00,61.6,60.7,30.07,WNW,302,0.0,0.0,97,0.00,,,0.01,Wunderground v.1.15,2013-01-15 00:26:00,
2013-01-14 19:32:00,61.3,60.4,30.07,WNW,302,0.0,0.0,97,0.00,,,0.01,Wunderground v.1.15,2013-01-15 00:32:00,
2013-01-14 19:38:00,61.0,60.1,30.07,WNW,302,0.0,0.0,97,0.00,,,0.01,Wunderground v.1.15,2013-01-15 00:38:00,
2013-01-14 19:44:00,60.9,60.3,30.07,WNW,302,0.0,0.0,98,0.00,,,0.01,Wunderground v.1.15,2013-01-15 00:44:00,
2013-01-14 19:49:00,60.8,59.9,30.07,WNW,302,0.0,0.0,97,0.00,,,0.01,Wunderground v.1.15,2013-01-15 00:49:00,
2013-01-14 19:55:00,60.7,60.1,30.07,WNW,302,0.0,0.0,98,0.00,,,0.01,Wunderground v.1.15,2013-01-15 00:55:00,
2013-01-14 20:01:00,60.6,60.0,30.07,WNW,302,0.0,0.0,98,0.00,,,0.01,Wunderground v.1.15,2013-01-15 01:01:00,
2013-01-14 20:07:00,60.6,60.0,30.07,West,264,0.0,1.0,98,0.00,,,0.01,Wunderground v.1.15,2013-01-15 01:07:00,
2013-01-14 20:13:00,60.5,59.9,30.07,SW,232,0.0,1.0,98,0.00,,,0.01,Wunderground v.1.15,2013-01-15 01:13:00,
2013-01-14 20:19:00,60.4,59.8,30.07,WNW,289,0.0,1.0,98,0.00,,,0.01,Wunderground v.1.15,2013-01-15 01:19:00,
2013-01-14 20:24:00,60.2,59.6,30.07,West,280,0.0,3.0,98,0.00,,,0.01,Wunderground v.1.15,2013-01-15 01:24:00,
2013-01-14 20:30:00,60.0,59.4,30.07,West,280,0.0,0.0,98,0.00,,,0.01,Wunderground v.1.15,2013-01-15 01:30:00,
2013-01-14 20:35:00,59.9,59.3,30.07,West,280,0.0,1.0,98,0.00,,,0.01,Wunderground v.1.15,2013-01-15 01:35:00,
2013-01-14 20:41:00,59.8,59.2,30.07,West,280,0.0,2.0,98,0.00,,,0.01,Wunderground v.1.15,2013-01-15 01:41:00,
2013-01-14 20:46:00,59.8,59.2,30.07,West,280,0.0,0.0,98,0.00,,,0.01,Wunderground v.1.15,2013-01-15 01:46:00,
2013-01-14 20:52:00,59.7,59.1,30.07,West,280,0.0,0.0,98,0.00,,,0.01,Wunderground v.1.15,2013-01-15 01:52:00,
2013-01-14 20:58:00,59.7,59.1,30.07,West,280,0.0,0.0,98,0.00,,,0.01,Wunderground v.1.15,2013-01-15 01:58:00,
2013-01-14 21:03:00,59.7,59.1,30.07,West,280,0.0,0.0,98,0.00,,,0.01,Wunderground v.1.15,2013-01-15 02:03:00,
2013-01-14 21:09:00,59.8,59.5,30.07,West,280,0.0,0.0,99,0.00,,,0.01,Wunderground v.1.15,2013-01-15 02:09:00,
2013-01-14 21:15:00,59.8,59.5,30.07,West,280,0.0,0.0,99,0.00,,,0.01,Wunderground v.1.15,2013-01-15 02:15:00,
2013-01-14 21:20:00,59.8,59.5,30.07,West,280,0.0,0.0,99,0.00,,,0.01,Wunderground v.1.15,2013-01-15 02:20:00,
2013-01-14 21:26:00,59.7,59.4,30.07,West,280,0.0,0.0,99,0.00,,,0.01,Wunderground v.1.15,2013-01-15 02:26:00,
2013-01-14 21:31:00,59.6,59.3,30.07,West,280,0.0,0.0,99,0.00,,,0.01,Wunderground v.1.15,2013-01-15 02:31:00,
2013-01-14 21:37:00,59.5,59.2,30.07,West,280,0.0,0.0,99,0.00,,,0.01,Wunderground v.1.15,2013-01-15 02:37:00,
2013-01-14 21:43:00,59.8,59.5,30.07,West,280,0.0,1.0,99,0.00,,,0.01,Wunderground v.1.15,2013-01-15 02:43:00,
2013-01-14 21:48:00,60.1,59.8,30.07,West,273,0.0,0.0,99,0.00,,,0.01,Wunderground v.1.15,2013-01-15 02:48:00,
2013-01-14 21:54:00,60.2,59.9,30.07,West,281,0.0,0.0,99,0.00,,,0.01,Wunderground v.1.15,2013-01-15 02:54:00,
2013-01-14 22:00:00,60.5,60.2,30.07,West,269,0.0,2.0,99,0.00,,,0.01,Wunderground v.1.15,2013-01-15 03:00:00,
2013-01-14 22:06:00,60.8,60.5,30.07,West,269,0.0,2.0,99,0.00,,,0.01,Wunderground v.1.15,2013-01-15 03:06:00,
2013-01-14 22:12:00,61.1,60.5,30.07,West,271,0.0,0.0,98,0.00,,,0.01,Wunderground v.1.15,2013-01-15 03:12:00,
2013-01-14 22:18:00,61.4,60.8,30.07,West,271,0.0,2.0,98,0.00,,,0.01,Wunderground v.1.15,2013-01-15 03:18:00,
2013-01-14 22:23:00,61.6,61.0,30.07,West,270,0.0,2.0,98,0.00,,,0.01,Wunderground v.1.15,2013-01-15 03:23:00,
2013-01-14 22:29:00,61.6,60.7,30.07,West,270,0.0,0.0,97,0.00,,,0.01,Wunderground v.1.15,2013-01-15 03:29:00,
2013-01-14 22:35:00,61.6,60.7,30.07,West,270,0.0,0.0,97,0.00,,,0.01,Wunderground v.1.15,2013-01-15 03:35:00,
2013-01-14 22:40:00,61.5,60.3,30.07,West,270,0.0,0.0,96,0.00,,,0.01,Wunderground v.1.15,2013-01-15 03:40:00,
2013-01-14 22:46:00,61.2,60.1,30.07,West,270,0.0,0.0,96,0.00,,,0.01,Wunderground v.1.15,2013-01-15 03:46:00,
2013-01-14 22:52:00,61.1,60.2,30.07,West,270,0.0,0.0,97,0.00,,,0.01,Wunderground v.1.15,2013-01-15 03:52:00,
2013-01-14 22:57:00,61.1,60.5,30.07,West,270,0.0,0.0,98,0.00,,,0.01,Wunderground v.1.15,2013-01-15 03:57:00,
2013-01-14 23:02:00,61.0,60.4,30.07,West,270,0.0,0.0,98,0.00,,,0.01,Wunderground v.1.15,2013-01-15 04:02:00,
2013-01-14 23:07:00,61.0,60.4,30.07,West,270,0.0,0.0,98,0.00,,,0.01,Wunderground v.1.15,2013-01-15 04:07:00,
2013-01-14 23:13:00,60.9,60.0,30.07,NW,314,0.0,0.0,97,0.00,,,0.01,Wunderground v.1.15,2013-01-15 04:13:00,
2013-01-14 23:19:00,60.7,59.8,30.07,NW,314,0.0,0.0,97,0.00,,,0.01,Wunderground v.1.15,2013-01-15 04:19:00,
2013-01-14 23:24:00,60.5,59.6,30.07,WNW,291,0.0,1.0,97,0.00,,,0.01,Wunderground v.1.15,2013-01-15 04:24:00,
2013-01-14 23:30:00,60.5,59.9,30.06,WNW,291,0.0,0.0,98,0.00,,,0.01,Wunderground v.1.15,2013-01-15 04:30:00,
2013-01-14 23:36:00,60.5,59.9,30.06,WNW,291,0.0,0.0,98,0.00,,,0.01,Wunderground v.1.15,2013-01-15 04:36:00,
2013-01-14 23:42:00,60.5,59.9,30.06,WNW,291,0.0,1.0,98,0.00,,,0.01,Wunderground v.1.15,2013-01-15 04:42:00,
2013-01-14 23:47:00,60.5,59.9,30.07,WNW,291,0.0,0.0,98,0.00,,,0.01,Wunderground v.1.15,2013-01-15 04:47:00,
2013-01-14 23:52:00,60.4,59.8,30.07,WNW,291,0.0,0.0,98,0.00,,,0.01,Wunderground v.1.15,2013-01-15 04:52:00,
2013-01-14 23:57:00,60.3,59.7,30.07,WNW,291,0.0,0.0,98,0.00,,,0.01,Wunderground v.1.15,2013-01-15 04:57:00,